Time;durP1;ratioP1;P1;durP2;ratioP2;P2;SDS_P1;SDS_P2;PMS_P1;PMS_P2;Temp;Humidity;BMP_temperature;BMP_pressure;BME280_temperature;BME280_humidity;BME280_pressure;Samples;Min_cycle;Max_cycle;Signal;HPM_P1;HPM_P2
2021/09/26 00:02:00;;;;;;;;;;;;;;;16.82;100.00;100483.91;1620975;86;20185;-83
2021/09/26 00:04:28;;;;;;;;;;;;;;;16.89;100.00;100481.84;1644853;86;20187;-83
2021/09/26 00:06:53;;;;;;;;;;;;;;;16.93;100.00;100486.61;1649784;86;20169;-83
2021/09/26 00:09:20;;;;;;;;;;;;;;;16.90;100.00;100484.84;1647749;86;20518;-83
2021/09/26 00:11:50;;;;;;;;;;;;;;;16.93;100.00;100497.80;1647432;85;20181;-83
2021/09/26 00:14:17;;;;;;;;;;;;;;;16.93;100.00;100496.47;1619203;87;22144;-83
2021/09/26 00:16:42;;;;;;;;;;;;;;;16.92;100.00;100495.66;1646304;86;20173;-82
2021/09/26 00:19:09;;;;;;;;;;;;;;;16.95;100.00;100499.27;1651388;86;20165;-83
2021/09/26 00:21:36;;;;;;;;;;;;;;;16.97;100.00;100493.75;1643264;85;20209;-83
2021/09/26 00:24:03;;;;;;;;;;;;;;;16.95;100.00;100493.09;1624289;87;21354;-83
2021/09/26 00:26:32;;;;;;;;;;;;;;;16.96;100.00;100495.57;1634155;86;21924;-82
2021/09/26 00:28:58;;;;;;;;;;;;;;;16.98;100.00;100495.38;1626895;86;20183;-83
2021/09/26 00:31:25;;;;;;;;;;;;;;;16.96;100.00;100492.09;1632895;86;21288;-86
2021/09/26 00:33:50;;;;;;;;;;;;;;;16.83;100.00;100496.23;1634195;86;20243;-83
2021/09/26 00:36:16;;;;;;;;;;;;;;;16.88;100.00;100494.88;1628458;87;20880;-86
2021/09/26 00:38:41;;;;;;;;;;;;;;;16.88;100.00;100502.89;1635020;86;21097;-83
2021/09/26 00:41:08;;;;;;;;;;;;;;;16.86;100.00;100498.55;1633666;86;20286;-81
2021/09/26 00:43:36;;;;;;;;;;;;;;;16.86;100.00;100503.08;1649698;86;20133;-84
2021/09/26 00:46:05;;;;;;;;;;;;;;;16.83;100.00;100501.57;1648963;85;20208;-83
2021/09/26 00:48:30;;;;;;;;;;;;;;;16.83;100.00;100504.23;1640171;85;20182;-83
2021/09/26 00:50:57;;;;;;;;;;;;;;;16.79;100.00;100506.95;1618539;87;21172;-81
2021/09/26 00:53:23;;;;;;;;;;;;;;;16.74;100.00;100502.70;1618055;88;20248;-84
2021/09/26 00:55:48;;;;;;;;;;;;;;;16.81;100.00;100506.28;1601129;87;20220;-82
2021/09/26 00:58:14;;;;;;;;;;;;;;;16.88;100.00;100508.22;1632622;87;20557;-80
2021/09/26 01:00:40;;;;;;;;;;;;;;;16.92;100.00;100509.48;1607652;87;20127;-81
2021/09/26 01:03:05;;;;;;;;;;;;;;;16.94;100.00;100502.13;1652728;86;21182;-80
2021/09/26 01:05:31;;;;;;;;;;;;;;;16.95;100.00;100509.09;1651665;86;20240;-80
2021/09/26 01:08:19;;;;;;;;;;;;;;;16.97;100.00;100509.76;1651815;86;20295;-81
2021/09/26 01:11:00;;;;;;;;;;;;;;;16.97;100.00;100507.09;1652291;86;20193;-83
2021/09/26 01:13:36;;;;;;;;;;;;;;;16.93;100.00;100505.80;1650177;85;20174;-79
2021/09/26 01:16:24;;;;;;;;;;;;;;;16.90;100.00;100506.19;1650856;85;21799;-80
2021/09/26 01:19:22;;;;;;;;;;;;;;;16.89;100.00;100507.19;1647437;85;20502;-82
2021/09/26 01:21:58;;;;;;;;;;;;;;;16.88;100.00;100503.70;1650127;86;20163;-82
2021/09/26 01:24:46;;;;;;;;;;;;;;;16.91;100.00;100505.17;1653464;86;20528;-86
2021/09/26 01:27:24;;;;;;;;;;;;;;;16.94;100.00;100507.47;1650876;86;20170;-81
2021/09/26 01:30:11;;;;;;;;;;;;;;;16.93;100.00;100504.47;1652905;86;21704;-80
2021/09/26 01:32:37;;;;;;;;;;;;;;;16.95;100.00;100509.95;1644249;86;20171;-81
2021/09/26 01:35:03;;;;;;;;;;;;;;;16.95;100.00;100513.10;1647016;86;20241;-83
2021/09/26 01:37:42;;;;;;;;;;;;;;;16.90;100.00;100510.19;1627959;86;20224;-83
2021/09/26 01:40:25;;;;;;;;;;;;;;;16.95;100.00;100515.28;1614631;87;20468;-84
2021/09/26 01:43:00;;;;;;;;;;;;;;;16.91;100.00;100515.84;1625436;87;20189;-79
2021/09/26 01:45:52;;;;;;;;;;;;;;;16.91;100.00;100526.00;1631480;86;20519;-79
2021/09/26 01:48:23;;;;;;;;;;;;;;;16.89;100.00;100527.19;1616027;87;20187;-82
2021/09/26 01:50:51;;;;;;;;;;;;;;;16.75;100.00;100529.70;1631016;86;20175;-83
2021/09/26 01:53:16;;;;;;;;;;;;;;;16.66;100.00;100534.81;1634657;87;20200;-85
2021/09/26 01:55:44;;;;;;;;;;;;;;;16.66;100.00;100534.81;1627359;86;21326;-82
2021/09/26 01:58:10;;;;;;;;;;;;;;;16.66;100.00;100542.81;1631397;86;20188;-82
2021/09/26 02:00:39;;;;;;;;;;;;;;;16.64;100.00;100552.82;1640546;87;20149;-81
2021/09/26 02:03:06;;;;;;;;;;;;;;;16.62;100.00;100549.52;1637760;86;20570;-82
2021/09/26 02:05:32;;;;;;;;;;;;;;;16.54;100.00;100544.30;1633578;86;20237;-79
2021/09/26 02:08:00;;;;;;;;;;;;;;;16.45;100.00;100548.41;1598322;87;22163;-81
2021/09/26 02:10:28;;;;;;;;;;;;;;;16.43;100.00;100545.08;1622625;86;20194;-80
2021/09/26 02:12:53;;;;;;;;;;;;;;;16.42;100.00;100547.45;1595782;88;20355;-80
2021/09/26 02:15:21;;;;;;;;;;;;;;;16.42;100.00;100544.78;1632384;86;20147;-81
2021/09/26 02:17:47;;;;;;;;;;;;;;;16.41;100.00;100545.78;1628099;87;20210;-79
2021/09/26 02:20:16;;;;;;;;;;;;;;;16.40;100.00;100541.45;1634119;86;22338;-80
2021/09/26 02:22:42;;;;;;;;;;;;;;;16.42;100.00;100542.12;1629925;86;20199;-80
2021/09/26 02:25:09;;;;;;;;;;;;;;;16.41;100.00;100548.45;1615407;86;20162;-80
2021/09/26 02:27:36;;;;;;;;;;;;;;;16.41;100.00;100550.30;1627808;87;20200;-81
2021/09/26 02:30:06;;;;;;;;;;;;;;;16.39;100.00;100553.15;1635363;86;20535;-83
2021/09/26 02:32:31;;;;;;;;;;;;;;;16.39;100.00;100550.97;1630979;86;21147;-86
2021/09/26 02:34:57;;;;;;;;;;;;;;;16.36;100.00;100550.84;1631360;86;20143;-80
2021/09/26 02:37:23;;;;;;;;;;;;;;;16.37;100.00;100557.00;1600733;86;20465;-82
2021/09/26 02:39:49;;;;;;;;;;;;;;;16.35;100.00;100557.18;1630565;85;20185;-79
2021/09/26 02:42:24;;;;;;;;;;;;;;;16.34;100.00;100566.17;1628779;86;20251;-80
2021/09/26 02:45:08;;;;;;;;;;;;;;;16.30;100.00;100564.91;1628081;86;21159;-81
2021/09/26 02:47:41;;;;;;;;;;;;;;;16.29;100.00;100563.25;1634167;86;20203;-83
2021/09/26 02:50:08;;;;;;;;;;;;;;;16.26;100.00;100564.95;1621039;87;20188;-81
2021/09/26 02:52:33;;;;;;;;;;;;;;;16.20;100.00;100567.01;1625163;86;20142;-79
2021/09/26 02:54:59;;;;;;;;;;;;;;;16.09;100.00;100567.77;1630085;86;20135;-82
2021/09/26 02:57:24;;;;;;;;;;;;;;;16.04;100.00;100574.16;1628726;86;21857;-81
2021/09/26 02:59:53;;;;;;;;;;;;;;;15.98;100.00;100571.70;1626659;86;20140;-79
2021/09/26 03:02:23;;;;;;;;;;;;;;;15.95;100.00;100569.91;1602107;87;20171;-82
2021/09/26 03:04:49;;;;;;;;;;;;;;;15.93;100.00;100574.60;1615609;87;20710;-83
2021/09/26 03:07:17;;;;;;;;;;;;;;;15.89;100.00;100579.95;1629294;86;20145;-83
2021/09/26 03:09:43;;;;;;;;;;;;;;;15.85;100.00;100582.16;1631865;86;21143;-84
2021/09/26 03:12:18;;;;;;;;;;;;;;;15.81;100.00;100582.70;1599839;87;21058;-84
2021/09/26 03:14:43;;;;;;;;;;;;;;;15.81;100.00;100584.03;1635996;86;20211;-85
2021/09/26 03:17:09;;;;;;;;;;;;;;;15.81;100.00;100581.38;1637180;86;20170;-80
2021/09/26 03:19:34;;;;;;;;;;;;;;;15.78;100.00;100590.05;1628018;86;20152;-80
2021/09/26 03:22:02;;;;;;;;;;;;;;;15.77;100.00;100591.05;1621633;87;21107;-80
2021/09/26 03:24:28;;;;;;;;;;;;;;;15.75;100.00;100586.39;1618134;86;20182;-81
2021/09/26 03:26:55;;;;;;;;;;;;;;;15.72;100.00;100586.74;1615499;87;20476;-81
2021/09/26 03:29:21;;;;;;;;;;;;;;;15.73;100.00;100585.72;1627152;86;20197;-79
2021/09/26 03:31:46;;;;;;;;;;;;;;;15.71;100.00;100590.41;1635045;86;20146;-82
2021/09/26 03:34:12;;;;;;;;;;;;;;;15.72;100.00;100586.74;1602103;87;21375;-81
2021/09/26 03:36:39;;;;;;;;;;;;;;;15.70;100.00;100590.58;1630732;86;20498;-83
2021/09/26 03:39:05;;;;;;;;;;;;;;;15.67;100.00;100590.42;1634048;86;20251;-82
2021/09/26 03:41:31;;;;;;;;;;;;;;;15.67;100.00;100594.93;1636355;86;20703;-80
2021/09/26 03:43:58;;;;;;;;;;;;;;;15.65;100.00;100596.95;1632137;87;20128;-83
2021/09/26 03:46:24;;;;;;;;;;;;;;;15.56;100.00;100602.32;1629860;86;21145;-80
2021/09/26 03:48:50;;;;;;;;;;;;;;;15.42;100.00;100603.91;1636069;85;20228;-82
2021/09/26 03:51:16;;;;;;;;;;;;;;;15.22;100.00;100604.05;1635340;86;20216;-82
2021/09/26 03:53:41;;;;;;;;;;;;;;;15.06;100.00;100611.62;1639861;86;20135;-81
2021/09/26 03:56:09;;;;;;;;;;;;;;;15.01;100.00;100610.81;1635499;86;20180;-81
2021/09/26 03:58:37;;;;;;;;;;;;;;;15.03;100.00;100606.14;1630807;86;20201;-82
2021/09/26 04:01:03;;;;;;;;;;;;;;;15.06;100.00;100611.11;1628894;87;20168;-80
2021/09/26 04:03:30;;;;;;;;;;;;;;;15.02;100.00;100600.52;1630757;86;20155;-83
2021/09/26 04:05:56;;;;;;;;;;;;;;;15.06;100.00;100603.13;1622376;87;20528;-81
2021/09/26 04:08:23;;;;;;;;;;;;;;;15.06;100.00;100607.13;1633569;87;20143;-82
2021/09/26 04:10:53;;;;;;;;;;;;;;;15.05;100.00;100614.77;1634363;86;21145;-81
2021/09/26 04:13:19;;;;;;;;;;;;;;;15.04;100.00;100613.13;1630364;86;20232;-81
2021/09/26 04:15:48;;;;;;;;;;;;;;;15.04;100.00;100607.81;1631828;87;20187;-81
2021/09/26 04:18:15;;;;;;;;;;;;;;;15.02;100.00;100608.98;1625710;86;20161;-81
2021/09/26 04:20:40;;;;;;;;;;;;;;;14.93;100.00;100620.66;1636110;87;20180;-82
2021/09/26 04:23:08;;;;;;;;;;;;;;;14.83;100.00;100618.21;1629112;85;22355;-84
2021/09/26 04:25:34;;;;;;;;;;;;;;;14.78;100.00;100623.23;1634844;86;20135;-81
2021/09/26 04:27:59;;;;;;;;;;;;;;;14.70;100.00;100622.24;1636720;86;20158;-81
2021/09/26 04:30:25;;;;;;;;;;;;;;;14.65;100.00;100619.28;1610607;87;20469;-80
2021/09/26 04:32:52;;;;;;;;;;;;;;;14.61;100.00;100617.95;1628499;86;20161;-81
2021/09/26 04:35:19;;;;;;;;;;;;;;;14.62;100.00;100619.63;1600258;87;21910;-82
2021/09/26 04:37:45;;;;;;;;;;;;;;;14.61;100.00;100626.44;1638979;86;20671;-82
2021/09/26 04:40:13;;;;;;;;;;;;;;;14.56;100.00;100624.26;1636314;86;20609;-84
2021/09/26 04:42:41;;;;;;;;;;;;;;;14.55;100.00;100619.42;1632462;85;20147;-81
2021/09/26 04:45:09;;;;;;;;;;;;;;;14.58;100.00;100628.08;1634048;86;20430;-82
2021/09/26 04:47:34;;;;;;;;;;;;;;;14.56;100.00;100628.25;1630834;86;20213;-81
2021/09/26 04:50:00;;;;;;;;;;;;;;;14.60;100.00;100628.25;1637971;86;20214;-82
2021/09/26 04:52:28;;;;;;;;;;;;;;;14.62;100.00;100628.92;1628413;87;20277;-80
2021/09/26 04:54:57;;;;;;;;;;;;;;;14.66;100.00;100627.56;1632553;86;20575;-81
2021/09/26 04:57:23;;;;;;;;;;;;;;;14.71;100.00;100637.20;1637872;86;20163;-81
2021/09/26 04:59:50;;;;;;;;;;;;;;;14.75;100.00;100638.19;1628379;86;21130;-81
2021/09/26 05:02:15;;;;;;;;;;;;;;;14.78;100.00;100632.02;1638499;86;20109;-81
2021/09/26 05:04:41;;;;;;;;;;;;;;;14.78;100.00;100635.19;1627858;86;20194;-81
2021/09/26 05:07:08;;;;;;;;;;;;;;;14.82;100.00;100643.13;1628695;86;20153;-81
2021/09/26 05:09:34;;;;;;;;;;;;;;;14.84;100.00;100647.80;1631977;86;20142;-81
2021/09/26 05:11:59;;;;;;;;;;;;;;;14.88;100.00;100641.11;1631729;86;21122;-83
2021/09/26 05:14:25;;;;;;;;;;;;;;;14.89;100.00;100642.27;1630460;86;20243;-81
2021/09/26 05:16:51;;;;;;;;;;;;;;;14.92;100.00;100645.61;1628476;86;20169;-82
2021/09/26 05:19:18;;;;;;;;;;;;;;;14.97;100.00;100648.57;1596080;87;21306;-85
2021/09/26 05:21:44;;;;;;;;;;;;;;;15.00;100.00;100650.88;1636094;86;20215;-81
2021/09/26 05:24:09;;;;;;;;;;;;;;;15.01;100.00;100650.72;1632664;86;21201;-81
2021/09/26 05:26:35;;;;;;;;;;;;;;;15.04;100.00;100648.22;1645667;86;20249;-81
2021/09/26 05:29:02;;;;;;;;;;;;;;;15.07;100.00;100652.69;1647511;86;20158;-82
2021/09/26 05:31:29;;;;;;;;;;;;;;;15.11;100.00;100650.49;1630410;86;20213;-82
2021/09/26 05:33:56;;;;;;;;;;;;;;;15.15;100.00;100650.97;1626997;86;20226;-82
2021/09/26 05:36:21;;;;;;;;;;;;;;;15.18;100.00;100656.79;1629238;85;21258;-81
2021/09/26 05:38:47;;;;;;;;;;;;;;;15.20;100.00;100655.28;1632044;86;20474;-83
2021/09/26 05:41:12;;;;;;;;;;;;;;;15.19;100.00;100658.94;1629742;86;20470;-80
2021/09/26 05:43:40;;;;;;;;;;;;;;;15.19;100.00;100655.77;1635008;86;20175;-80
2021/09/26 05:46:07;;;;;;;;;;;;;;;15.23;100.00;100671.72;1631728;87;20500;-82
2021/09/26 05:48:34;;;;;;;;;;;;;;;15.28;100.00;100669.87;1636794;85;21086;-82
2021/09/26 05:50:59;;;;;;;;;;;;;;;15.32;100.00;100665.86;1637017;86;20561;-84
2021/09/26 05:53:28;;;;;;;;;;;;;;;15.31;100.00;100677.50;1638970;85;20465;-81
2021/09/26 05:55:55;;;;;;;;;;;;;;;15.31;100.00;100682.83;1631997;86;20169;-81
2021/09/26 05:58:20;;;;;;;;;;;;;;;15.35;100.00;100680.63;1633947;86;20226;-81
2021/09/26 06:00:46;;;;;;;;;;;;;;;15.39;100.00;100672.13;1601465;86;21203;-81
2021/09/26 06:03:13;;;;;;;;;;;;;;;15.42;100.00;100665.13;1632397;86;20146;-81
2021/09/26 06:05:40;;;;;;;;;;;;;;;15.47;100.00;100667.77;1628708;87;20160;-82
2021/09/26 06:08:05;;;;;;;;;;;;;;;15.51;100.00;100672.57;1630187;86;20550;-81
2021/09/26 06:10:34;;;;;;;;;;;;;;;15.55;100.00;100674.37;1632889;87;20163;-82
2021/09/26 06:13:02;;;;;;;;;;;;;;;15.57;100.00;100672.38;1645237;85;20751;-81
2021/09/26 06:15:30;;;;;;;;;;;;;;;15.61;100.00;100675.00;1629864;86;20205;-81
2021/09/26 06:17:57;;;;;;;;;;;;;;;15.70;100.00;100681.11;1631743;86;20179;-82
2021/09/26 06:20:25;;;;;;;;;;;;;;;15.71;100.00;100679.60;1632090;87;20595;-81
2021/09/26 06:22:50;;;;;;;;;;;;;;;15.74;100.00;100680.58;1636059;86;20191;-82
2021/09/26 06:25:16;;;;;;;;;;;;;;;15.73;100.00;100689.56;1635858;87;21268;-85
2021/09/26 06:27:42;;;;;;;;;;;;;;;15.75;100.00;100690.23;1636611;86;20480;-82
2021/09/26 06:30:09;;;;;;;;;;;;;;;15.81;100.00;100687.89;1604321;87;20336;-81
2021/09/26 06:32:36;;;;;;;;;;;;;;;15.84;100.00;100688.87;1632103;86;20175;-83
2021/09/26 06:35:06;;;;;;;;;;;;;;;15.87;100.00;100689.84;1604145;87;20173;-82
2021/09/26 06:37:31;;;;;;;;;;;;;;;15.89;100.00;100694.48;1626512;86;20105;-82
2021/09/26 06:39:57;;;;;;;;;;;;;;;15.90;100.00;100697.48;1638605;86;20150;-81
2021/09/26 06:42:23;;;;;;;;;;;;;;;15.90;100.00;100702.81;1637163;86;20445;-86
2021/09/26 06:44:50;;;;;;;;;;;;;;;15.93;100.00;100702.45;1616840;87;20197;-84
2021/09/26 06:47:16;;;;;;;;;;;;;;;15.94;100.00;100710.75;1618393;87;20470;-78
2021/09/26 06:49:45;;;;;;;;;;;;;;;15.99;100.00;100713.73;1624879;87;21147;-83
2021/09/26 06:52:12;;;;;;;;;;;;;;;16.02;100.00;100718.70;1645957;85;20160;-82
2021/09/26 06:54:38;;;;;;;;;;;;;;;16.04;100.00;100729.19;1645691;85;20181;-82
2021/09/26 06:57:05;;;;;;;;;;;;;;;16.04;100.00;100730.00;1627624;86;21296;-84
2021/09/26 06:59:31;;;;;;;;;;;;;;;16.09;100.00;100728.14;1629634;87;20207;-83
2021/09/26 07:01:57;;;;;;;;;;;;;;;16.15;100.00;100733.57;1630644;86;21104;-84
2021/09/26 07:04:24;;;;;;;;;;;;;;;16.15;99.16;100740.23;1628894;87;20261;-86
2021/09/26 07:06:50;;;;;;;;;;;;;;;16.22;98.51;100742.19;1618162;86;20212;-81
2021/09/26 07:09:17;;;;;;;;;;;;;;;16.24;97.27;100745.52;1638898;86;20387;-82
2021/09/26 07:11:44;;;;;;;;;;;;;;;16.28;96.17;100740.98;1594405;87;20158;-81
2021/09/26 07:14:11;;;;;;;;;;;;;;;16.28;95.59;100744.14;1610022;87;21983;-78
2021/09/26 07:16:37;;;;;;;;;;;;;;;16.32;96.40;100744.11;1626848;86;20300;-78
2021/09/26 07:19:02;;;;;;;;;;;;;;;16.37;95.96;100752.39;1630579;85;20475;-84
2021/09/26 07:21:28;;;;;;;;;;;;;;;16.45;96.07;100760.34;1626668;86;20774;-81
2021/09/26 07:23:54;;;;;;;;;;;;;;;16.51;95.46;100764.95;1627424;86;20154;-81
2021/09/26 07:26:21;;;;;;;;;;;;;;;16.63;95.36;100764.52;1629476;86;21177;-79
2021/09/26 07:28:47;;;;;;;;;;;;;;;16.67;94.79;100761.78;1622114;86;20115;-81
2021/09/26 07:31:14;;;;;;;;;;;;;;;16.74;94.42;100764.06;1643141;86;20178;-80
2021/09/26 07:33:40;;;;;;;;;;;;;;;16.81;94.96;100771.67;1641811;86;20154;-80
2021/09/26 07:36:09;;;;;;;;;;;;;;;16.87;93.06;100771.46;1623201;85;20185;-83
2021/09/26 07:38:36;;;;;;;;;;;;;;;16.86;92.79;100775.98;1626380;85;20325;-82
2021/09/26 07:41:01;;;;;;;;;;;;;;;16.88;92.18;100777.65;1626926;87;20249;-84
2021/09/26 07:43:27;;;;;;;;;;;;;;;16.97;91.92;100779.22;1626849;85;20189;-80
2021/09/26 07:45:52;;;;;;;;;;;;;;;17.03;90.72;100781.16;1629223;87;20142;-78
2021/09/26 07:48:19;;;;;;;;;;;;;;;17.09;90.98;100781.77;1632638;87;20233;-79
2021/09/26 07:50:46;;;;;;;;;;;;;;;17.16;90.20;100789.34;1630132;87;21917;-82
2021/09/26 07:53:12;;;;;;;;;;;;;;;17.15;89.42;100790.38;1604867;87;20167;-79
2021/09/26 07:55:37;;;;;;;;;;;;;;;17.19;89.06;100794.83;1607166;87;20145;-76
2021/09/26 07:58:03;;;;;;;;;;;;;;;17.23;88.55;100794.27;1616671;88;20562;-79
2021/09/26 08:00:28;;;;;;;;;;;;;;;17.28;86.99;100796.91;1648302;87;20128;-79
2021/09/26 08:02:54;;;;;;;;;;;;;;;17.34;87.38;100794.80;1648367;86;21227;-78
2021/09/26 08:05:20;;;;;;;;;;;;;;;17.39;86.84;100795.09;1650212;84;20152;-79
2021/09/26 08:07:45;;;;;;;;;;;;;;;17.42;86.19;100800.07;1649084;85;20477;-81
2021/09/26 08:10:11;;;;;;;;;;;;;;;17.47;86.69;100796.33;1650224;85;20135;-81
2021/09/26 08:12:37;;;;;;;;;;;;;;;17.49;86.17;100799.63;1648400;87;20184;-83
2021/09/26 08:15:04;;;;;;;;;;;;;;;17.59;84.30;100800.19;1648008;85;21090;-81
2021/09/26 08:17:30;;;;;;;;;;;;;;;17.51;81.73;100798.95;1648284;86;20200;-81
2021/09/26 08:19:56;;;;;;;;;;;;;;;17.44;81.40;100796.70;1646267;85;20160;-80
2021/09/26 08:22:24;;;;;;;;;;;;;;;17.50;81.97;100803.97;1647874;85;21036;-78
2021/09/26 08:24:50;;;;;;;;;;;;;;;17.50;82.73;100803.97;1645772;85;20197;-78
2021/09/26 08:27:20;;;;;;;;;;;;;;;17.50;82.82;100803.97;1660028;85;21802;-81
2021/09/26 08:29:46;;;;;;;;;;;;;;;17.55;83.59;100804.75;1648513;85;20133;-82
2021/09/26 08:32:15;;;;;;;;;;;;;;;17.59;83.88;100804.19;1650230;84;20134;-84
2021/09/26 08:34:42;;;;;;;;;;;;;;;17.58;84.26;100819.06;1646899;86;20134;-86
2021/09/26 08:37:08;;;;;;;;;;;;;;;17.59;84.58;100818.88;1622260;87;20197;-83
2021/09/26 08:39:33;;;;;;;;;;;;;;;17.56;83.27;100817.91;1627876;86;21936;-83
2021/09/26 08:41:59;;;;;;;;;;;;;;;17.62;83.26;100820.84;1620629;87;20339;-82
2021/09/26 08:44:27;;;;;;;;;;;;;;;17.66;82.73;100823.48;1620846;87;20138;-83
2021/09/26 08:46:53;;;;;;;;;;;;;;;17.67;82.83;100821.14;1621156;87;20305;-83
2021/09/26 08:49:19;;;;;;;;;;;;;;;17.82;83.12;100819.76;1620351;87;20286;-84
2021/09/26 08:51:52;;;;;;;;;;;;;;;17.93;82.63;100823.33;1622385;87;22055;-82
2021/09/26 08:54:17;;;;;;;;;;;;;;;18.03;82.17;100825.70;1620914;87;20160;-83
2021/09/26 08:56:43;;;;;;;;;;;;;;;18.07;80.98;100826.47;1622793;87;20131;-80
2021/09/26 08:59:10;;;;;;;;;;;;;;;18.11;79.73;100824.23;1630307;86;20111;-84
2021/09/26 09:01:35;;;;;;;;;;;;;;;18.19;80.05;100825.96;1624506;87;20239;-80
2021/09/26 09:04:01;;;;;;;;;;;;;;;18.26;79.43;100825.02;1625620;86;21862;-80
2021/09/26 09:06:44;;;;;;;;;;;;;;;18.36;79.93;100826.02;1629195;85;20152;-83
2021/09/26 09:09:19;;;;;;;;;;;;;;;18.44;79.81;100823.73;1621062;86;20227;-87
2021/09/26 09:11:46;;;;;;;;;;;;;;;18.44;78.24;100821.91;1624355;87;20143;-86
2021/09/26 09:14:11;;;;;;;;;;;;;;;18.55;78.43;100823.73;1613132;86;20369;-86
2021/09/26 09:16:37;;;;;;;;;;;;;;;18.63;78.97;100817.75;1625694;86;21012;-89
2021/09/26 09:19:03;;;;;;;;;;;;;;;18.65;77.39;100815.70;1626064;87;20145;-89
2021/09/26 09:21:32;;;;;;;;;;;;;;;18.66;77.30;100817.36;1644295;86;20499;-88
2021/09/26 09:24:14;;;;;;;;;;;;;;;18.70;75.68;100818.31;1645875;86;20183;-83
2021/09/26 09:26:40;;;;;;;;;;;;;;;18.77;75.64;100820.55;1646115;86;20209;-85
2021/09/26 09:29:07;;;;;;;;;;;;;;;18.85;75.31;100815.07;1635719;85;21907;-90
2021/09/26 09:31:33;;;;;;;;;;;;;;;18.93;74.30;100817.59;1631781;86;20528;-94
2021/09/26 09:34:04;;;;;;;;;;;;;;;19.01;73.99;100817.44;1631020;87;20471;-88
2021/09/26 09:36:28;;;;;;;;;;;;;;;19.14;73.55;100819.89;1627357;86;20127;-88
2021/09/26 09:38:58;;;;;;;;;;;;;;;19.19;72.44;100816.13;1633367;86;20237;-89
2021/09/26 09:41:38;;;;;;;;;;;;;;;19.24;70.99;100817.70;1631812;86;22411;-89
2021/09/26 09:44:05;;;;;;;;;;;;;;;19.34;70.58;100819.52;1628561;87;20153;-87
2021/09/26 09:46:37;;;;;;;;;;;;;;;19.31;69.74;100817.72;1635993;86;20216;-88
2021/09/26 09:49:17;;;;;;;;;;;;;;;19.30;69.12;100818.25;1634634;86;20183;-91
2021/09/26 09:51:55;;;;;;;;;;;;;;;19.34;69.82;100822.20;1629864;85;20661;-90
2021/09/26 09:54:31;;;;;;;;;;;;;;;19.40;70.42;100831.80;1634228;86;21133;-86
2021/09/26 09:56:57;;;;;;;;;;;;;;;19.41;70.93;100830.26;1631931;86;20163;-87
2021/09/26 09:59:33;;;;;;;;;;;;;;;19.38;71.71;100830.13;1632944;86;20200;-92
2021/09/26 10:01:58;;;;;;;;;;;;;;;19.41;71.29;100830.78;1618958;87;20405;-86
2021/09/26 10:04:27;;;;;;;;;;;;;;;19.41;71.18;100830.78;1631296;87;20308;-87
2021/09/26 10:06:54;;;;;;;;;;;;;;;19.38;70.18;100831.47;1599683;87;40366;-87
2021/09/26 10:09:22;;;;;;;;;;;;;;;19.49;70.68;100831.42;1629899;86;20173;-89
2021/09/26 10:11:59;;;;;;;;;;;;;;;19.64;68.50;100829.97;1637932;85;20154;-90
2021/09/26 10:14:31;;;;;;;;;;;;;;;19.65;67.69;100830.26;1637733;87;20190;-85
2021/09/26 10:16:57;;;;;;;;;;;;;;;19.80;67.67;100828.81;1638158;85;20936;-88
2021/09/26 10:19:24;;;;;;;;;;;;;;;19.85;67.65;100825.53;1632427;87;21144;-91
2021/09/26 10:21:51;;;;;;;;;;;;;;;19.93;67.01;100834.73;1636345;85;20148;-88
2021/09/26 10:24:21;;;;;;;;;;;;;;;19.90;66.27;100823.06;1634483;86;20166;-87
2021/09/26 10:26:47;;;;;;;;;;;;;;;20.02;66.47;100828.16;1632622;86;20489;-90
2021/09/26 10:29:13;;;;;;;;;;;;;;;20.19;65.84;100837.19;1633118;86;20131;-83
2021/09/26 10:31:39;;;;;;;;;;;;;;;20.24;65.30;100830.69;1623472;87;21055;-83
2021/09/26 10:34:04;;;;;;;;;;;;;;;20.37;65.75;100830.73;1595281;87;20243;-85
2021/09/26 10:36:31;;;;;;;;;;;;;;;20.29;65.37;100825.56;1628631;87;20820;-83
2021/09/26 10:38:57;;;;;;;;;;;;;;;20.33;65.64;100824.11;1601557;87;20216;-84
2021/09/26 10:41:26;;;;;;;;;;;;;;;20.35;66.11;100820.69;1598726;87;20265;-83
2021/09/26 10:43:52;;;;;;;;;;;;;;;20.38;66.44;100818.94;1624896;87;21168;-84
2021/09/26 10:46:24;;;;;;;;;;;;;;;20.42;67.04;100824.22;1622802;87;20209;-85
2021/09/26 10:49:06;;;;;;;;;;;;;;;20.43;66.96;100825.88;1625722;87;20106;-80
2021/09/26 10:51:56;;;;;;;;;;;;;;;20.56;68.29;100817.53;1624615;87;20230;-81
2021/09/26 10:54:25;;;;;;;;;;;;;;;20.53;66.57;100826.00;1626889;87;20143;-82
2021/09/26 10:56:53;;;;;;;;;;;;;;;20.50;67.90;100821.04;1626012;87;21207;-86
2021/09/26 10:59:20;;;;;;;;;;;;;;;20.58;67.01;100816.80;1620666;87;20213;-83
2021/09/26 11:01:47;;;;;;;;;;;;;;;20.61;67.19;100811.02;1625913;87;20720;-84
2021/09/26 11:04:15;;;;;;;;;;;;;;;20.60;65.77;100809.36;1627546;87;21146;-83
2021/09/26 11:06:41;;;;;;;;;;;;;;;20.56;66.10;100814.33;1599821;87;20209;-82
2021/09/26 11:09:10;;;;;;;;;;;;;;;20.63;67.08;100814.31;1580939;87;21887;-83
2021/09/26 11:11:47;;;;;;;;;;;;;;;20.64;66.04;100813.30;1626594;87;20153;-81
2021/09/26 11:14:14;;;;;;;;;;;;;;;20.68;66.56;100807.87;1627277;87;20212;-84
2021/09/26 11:16:54;;;;;;;;;;;;;;;20.70;65.81;100812.50;1631236;87;20214;-83
2021/09/26 11:19:21;;;;;;;;;;;;;;;20.72;65.31;100813.11;1629272;87;20208;-83
2021/09/26 11:21:49;;;;;;;;;;;;;;;20.79;65.46;100805.89;1634299;87;21090;-88
2021/09/26 11:24:28;;;;;;;;;;;;;;;20.90;66.19;100810.34;1624659;87;20125;-82
2021/09/26 11:27:03;;;;;;;;;;;;;;;20.90;64.05;100795.57;1626783;87;20390;-86
2021/09/26 11:29:50;;;;;;;;;;;;;;;20.89;62.96;100802.78;1624905;87;20212;-82
2021/09/26 11:32:25;;;;;;;;;;;;;;;21.00;65.94;100807.22;1629178;87;20172;-83
2021/09/26 11:34:53;;;;;;;;;;;;;;;21.04;63.76;100810.62;1632187;87;22010;-81
2021/09/26 11:37:38;;;;;;;;;;;;;;;21.01;64.61;100809.70;1599698;87;20405;-80
2021/09/26 11:40:10;;;;;;;;;;;;;;;20.84;63.74;100802.59;1631017;86;20218;-83
2021/09/26 11:42:39;;;;;;;;;;;;;;;20.87;62.70;100806.72;1621784;86;20225;-84
2021/09/26 11:45:08;;;;;;;;;;;;;;;20.84;62.98;100804.45;1628262;86;20228;-84
2021/09/26 11:47:36;;;;;;;;;;;;;;;20.88;63.90;100811.04;1624145;87;21121;-84
2021/09/26 11:50:08;;;;;;;;;;;;;;;20.92;61.69;100809.60;1637217;85;20153;-84
2021/09/26 11:52:42;;;;;;;;;;;;;;;20.96;62.65;100809.50;1645382;86;20570;-82
2021/09/26 11:55:08;;;;;;;;;;;;;;;20.94;63.04;100811.05;1645985;85;20204;-81
2021/09/26 11:57:34;;;;;;;;;;;;;;;20.94;62.39;100807.52;1648386;86;20267;-81
2021/09/26 11:59:59;;;;;;;;;;;;;;;20.90;61.94;100813.02;1648397;86;21059;-79
2021/09/26 12:02:29;;;;;;;;;;;;;;;20.88;61.83;100811.04;1647651;86;20184;-82
2021/09/26 12:04:54;;;;;;;;;;;;;;;20.90;61.10;100807.65;1646219;86;20251;-79
2021/09/26 12:07:20;;;;;;;;;;;;;;;20.84;61.84;100799.09;1644355;86;20486;-79
2021/09/26 12:09:47;;;;;;;;;;;;;;;20.94;62.30;100792.75;1648810;86;20479;-81
2021/09/26 12:12:21;;;;;;;;;;;;;;;21.01;61.94;100789.55;1647265;86;21180;-86
2021/09/26 12:14:56;;;;;;;;;;;;;;;21.07;61.42;100794.09;1619179;86;20168;-79
2021/09/26 12:17:27;;;;;;;;;;;;;;;21.11;61.86;100789.92;1620296;85;20233;-79
2021/09/26 12:20:02;;;;;;;;;;;;;;;21.20;61.26;100789.72;1648083;85;20131;-79
2021/09/26 12:22:28;;;;;;;;;;;;;;;21.31;59.71;100783.69;1639431;86;20511;-86
2021/09/26 12:25:00;;;;;;;;;;;;;;;21.42;60.30;100775.48;1645336;85;21165;-81
2021/09/26 12:27:32;;;;;;;;;;;;;;;21.55;60.05;100778.66;1650034;86;20565;-83
2021/09/26 12:30:07;;;;;;;;;;;;;;;21.65;59.34;100773.66;1642963;86;20191;-82
2021/09/26 12:32:40;;;;;;;;;;;;;;;21.86;58.66;100777.38;1644997;85;20229;-81
2021/09/26 12:35:09;;;;;;;;;;;;;;;22.06;59.72;100777.77;1626656;86;20185;-86
2021/09/26 12:37:39;;;;;;;;;;;;;;;22.16;58.10;100777.31;1637056;85;21070;-84